• Join FlightAware (Why Join?)
  • Login
  • US Flag 
03:23AM EDT


 

Airport Tracker/Info


-or-


 

Live Flight TrackerFlight Track Log ✈ AWE3367 ✈ 31-Jul-2014 ✈ KMCI - KDCA

Flight Track Log - Related Links

Times and Time Zones

All times are in EDT time to prevent confusion due to time zone crossing. See the AWE3367 flight status page for this flight to view local times or setup timezone preferences in your user account.

Time Position Orientation Groundspeed Altitude Reporting Facility
EDT Latitude Longitude Course Direction KTS MPH feet Rate Location/Type
05:27PM 39.2833 -94.7167 85° East 157 181 1,700  Level Kansas City TRACON
05:28PM 39.2333 -94.7167 180° South 210 242 3,400 2,040 Climbing Kansas City TRACON
05:29PM 39.1936 -94.7272 192° South 229 264 5,000 2,340 Climbing Kansas City Center
05:30PM 39.3319 -94.3371 80° East  Level FlightAware Approximate
05:30PM 39.1728 -94.6478 109° East 266 306 7,300  Level Kansas City Center
05:31PM 39.3511 -94.1939 80° East  Level FlightAware Approximate
05:31PM 39.1911 -94.5483 77° East 287 330 7,500  Level Kansas City Center
05:32PM 39.3701 -94.0507 80° East  Level FlightAware Approximate
05:32PM 39.2267 -94.4569 63° Northeast 286 329 9,900  Level Kansas City Center
05:33PM 39.3853 -93.9068 85° East  Level FlightAware Approximate
05:33PM 39.2661 -94.3306 68° East 318 366 12,700  Level Kansas City Center
05:34PM 39.3011 -94.2186 68° East 335 386 15,100 2,160 Climbing Kansas City Center
05:35PM 39.3392 -94.1017 67° East 350 403 17,300 2,040 Climbing Kansas City Center
05:36PM 39.3769 -93.9800 68° East 361 415 19,300 1,920 Climbing Kansas City Center
05:37PM 39.3997 -93.8464 78° East 379 436 21,300 1,980 Climbing Kansas City Center
05:38PM 39.3725 -93.6964 103° East 398 458 23,400 1,680 Climbing Kansas City Center
05:39PM 39.3456 -93.5567 104° East 405 466 24,800 1,320 Climbing Kansas City Center
05:40PM 39.3281 -93.4053 98° East 426 490 26,200 1,320 Climbing Kansas City Center
05:41PM 39.3281 -93.2219 90° East 431 496 27,600 1,200 Climbing Kansas City Center
05:42PM 39.3444 -93.0636 82° East 446 513 28,800 1,020 Climbing Kansas City Center
05:43PM 39.3597 -92.9025 83° East 450 518 29,800 960 Climbing Kansas City Center
05:44PM 39.3744 -92.7400 83° East 455 524 30,900 1,320 Climbing Kansas City Center
05:45PM 39.3936 -92.5464 83° East 456 525 32,600 1,440 Climbing Kansas City Center
05:46PM 39.4072 -92.3906 84° East 453 521 34,000 1,080 Climbing Kansas City Center
05:47PM 39.3964 -92.2347 95° East 443 510 34,800 480 Climbing Kansas City Center
05:48PM 39.3836 -92.0753 96° East 447 514 35,000 60 Climbing Kansas City Center
05:49PM 39.4017 -91.9069 82° East 475 547 35,000  Level Kansas City Center
05:51PM 39.4211 -91.7083 83° East 472 543 35,000  Level Kansas City Center
05:52PM 39.4356 -91.5472 83° East 472 543 35,000  Level Kansas City Center
05:53PM 39.4528 -91.3800 82° East 472 543 35,000  Level Kansas City Center
05:54PM 39.4678 -91.2106 83° East 472 543 35,000  Level Kansas City Center
05:55PM 39.4872 -91.0064 83° East 472 543 35,000  Level Kansas City Center
05:56PM 39.5025 -90.8375 83° East 472 543 35,000  Level Kansas City Center
05:57PM 39.5169 -90.6683 84° East 472 543 35,000  Level Kansas City Center
05:58PM 39.5314 -90.5000 84° East 472 543 35,000  Level Kansas City Center
05:59PM 39.5464 -90.3289 83° East 472 543 35,000  Level Kansas City Center
06:00PM 39.5600 -90.1592 84° East 472 543 35,000  Level Kansas City Center
06:01PM 39.5747 -89.9878 84° East 473 544 35,000  Level Kansas City Center
06:02PM 39.5914 -89.7844 84° East 473 544 35,000  Level Kansas City Center
06:03PM 39.6047 -89.6144 84° East 473 544 35,000  Level Kansas City Center
06:04PM 39.6175 -89.4453 84° East 473 544 35,000  Level Kansas City Center
06:05PM 39.6308 -89.2772 84° East 472 543 35,000  Level Kansas City Center
06:06PM 39.6439 -89.1047 84° East 472 543 35,000  Level Kansas City Center
06:07PM 39.6558 -88.9328 85° East 475 547 35,000  Level Kansas City Center
06:08PM 39.6703 -88.7203 85° East 487 560 35,000  Level Kansas City Center
06:09PM 39.6836 -88.5406 84° East 494 568 35,000  Level Kansas City Center
06:10PM 39.6972 -88.3617 84° East 495 570 35,000  Level Kansas City Center
06:11PM 39.7106 -88.1594 85° East 499 574 35,000  Level Kansas City Center
06:12PM 39.7228 -87.9783 85° East 499 574 35,000  Level Kansas City Center
06:13PM 39.7369 -87.7961 84° East 500 575 35,000  Level Kansas City Center
06:14PM 39.7558 -87.6139 82° East 501 577 35,000  Level Kansas City Center
06:16PM 39.7792 -87.3681 83° East 502 578 35,000  Level Indianapolis Center
06:17PM 39.7969 -87.1875 83° East 502 578 35,000  Level Indianapolis Center
06:18PM 39.8142 -87.0078 83° East 502 578 35,000  Level Indianapolis Center
06:19PM 39.8314 -86.8292 83° East 502 578 35,000  Level Indianapolis Center
06:20PM 39.8514 -86.6133 83° East 502 578 35,000  Level Indianapolis Center
06:21PM 39.8686 -86.4322 83° East 502 578 35,000  Level Indianapolis Center
06:22PM 39.8853 -86.2472 83° East 502 578 35,000  Level Indianapolis Center
06:23PM 39.9014 -86.0664 83° East 501 577 35,000  Level Indianapolis Center
06:24PM 39.9167 -85.8867 84° East 500 575 35,000  Level Indianapolis Center
06:25PM 39.9308 -85.7086 84° East 497 572 35,000  Level Indianapolis Center
06:26PM 39.9456 -85.5311 84° East 496 571 35,000  Level Indianapolis Center
06:27PM 39.9594 -85.3522 84° East 496 571 35,000  Level Indianapolis Center
06:28PM 39.9778 -85.1389 84° East 496 571 35,000  Level Indianapolis Center
06:29PM 39.9872 -84.9622 86° East 495 570 35,000  Level Indianapolis Center
06:30PM 39.9817 -84.7747 92° East 495 570 35,000  Level Indianapolis Center
06:31PM 39.9753 -84.5956 93° East 495 570 35,000  Level Indianapolis Center
06:32PM 39.9717 -84.4136 91° East 499 574 35,000  Level Indianapolis Center
06:34PM 39.9617 -84.0503 92° East 500 575 35,000  Level Indianapolis Center
06:35PM 39.9547 -83.8319 92° East 500 575 35,000  Level Indianapolis Center
06:36PM 39.9494 -83.6494 92° East 502 578 35,000  Level Indianapolis Center
06:37PM 39.9442 -83.4611 92° East 502 578 35,000  Level Indianapolis Center
06:38PM 39.9369 -83.2728 93° East 506 582 35,000  Level Indianapolis Center
06:39PM 39.9303 -83.0911 93° East 503 579 35,000  Level Indianapolis Center
06:41PM 39.9225 -82.9083 93° East 503 579 35,000  Level Indianapolis Center
06:42PM 39.9153 -82.7247 93° East 503 579 35,000  Level Indianapolis Center
06:43PM 39.9075 -82.5411 93° East 506 582 35,000  Level Indianapolis Center
06:44PM 39.8994 -82.3556 93° East 507 583 35,000  Level Indianapolis Center
06:45PM 39.8894 -82.1350 93° East 507 583 35,000  Level Indianapolis Center
06:46PM 39.8803 -81.9497 94° East 509 586 35,000  Level Indianapolis Center
06:47PM 39.8728 -81.7628 93° East 512 589 35,000  Level Indianapolis Center
06:48PM 39.8494 -81.5800 99° East 514 592 35,000  Level Indianapolis Center
06:49PM 39.7919 -81.3986 112° Southeast 506 582 35,000  Level Indianapolis Center
06:50PM 39.7403 -81.2289 112° Southeast 505 581 35,000  Level Indianapolis Center
06:51PM 39.6869 -81.0583 112° Southeast 506 582 35,000  Level Indianapolis Center
06:52PM 39.6336 -80.8897 112° Southeast 505 581 35,000  Level Indianapolis Center
06:53PM 39.5689 -80.6850 112° Southeast 506 582 35,000  Level Cleveland Center
06:54PM 39.5172 -80.5194 112° Southeast 502 578 35,000  Level Cleveland Center
06:55PM 39.4642 -80.3550 113° Southeast 501 577 35,000  Level Cleveland Center
06:56PM 39.4106 -80.1894 113° Southeast 500 575 35,000 -720 Level Cleveland Center
06:57PM 39.3581 -80.0236 112° Southeast 501 577 33,600 -1,980 Descending Cleveland Center
06:58PM 39.2967 -79.8247 112° Southeast 501 577 31,000 -2,460 Descending Cleveland Center
06:59PM 39.2786 -79.6403 97° East 520 598 28,600 -1,980 Descending Cleveland Center
07:00PM 39.2653 -79.4633 96° East 504 580 27,000 -780 Descending Cleveland Center
07:01PM 39.2514 -79.3025 96° East 472 543 27,000  Level Cleveland Center
07:02PM 39.2381 -79.1406 96° East 458 527 27,000 -660 Level Cleveland Center
07:03PM 39.2208 -78.9481 97° East 454 522 25,700 -1,800 Descending Cleveland Center
07:04PM 39.2072 -78.7931 96° East 446 513 23,400 -2,340 Descending Cleveland Center
07:05PM 39.1925 -78.6472 97° East 421 484 20,900 -2,280 Descending Cleveland Center
07:06PM 39.1781 -78.5061 97° East 405 466 18,800 -1,920 Descending Cleveland Center
07:07PM 39.1631 -78.3692 98° East 391 450 17,000 -780 Descending Cleveland Center
07:09PM 39.1267 -78.2164 107° East 378 435 17,100 -120 Climbing Washington Center
07:10PM 39.0939 -78.0869 108° East 373 429 16,800 -1,140 Descending Washington Center
07:11PM 39.0611 -77.9600 108° East 373 429 14,900 -1,980 Descending Washington Center
07:12PM 39.0261 -77.8308 109° East 367 422 12,900 -1,860 Descending Washington Center
07:13PM 38.9989 -77.7203 108° East 341 392 11,200 -1,680 Descending Washington Center
07:14PM 38.9736 -77.6156 107° East 319 367 9,600 -1,560 Descending Washington Center
07:15PM 38.9500 -77.5167 107° East 293 337 8,200 -1,260 Descending Potomac TRACON
07:16PM 38.9500 -77.4167 90° East 279 321 7,200 -1,260 Descending Potomac TRACON
07:17PM 38.9667 -77.3167 78° East 261 300 5,600 -1,440 Descending Potomac TRACON
07:18PM 38.9667 -77.2167 90° East 257 296 4,200 -1,500 Descending Potomac TRACON
07:19PM 38.9500 -77.1500 108° East 229 264 2,800 -1,500 Descending Potomac TRACON
07:20PM 38.9167 -77.1000 131° Southeast 191 220 1,400 -1,140 Descending Potomac TRACON
07:21PM 38.8833 -77.0500 131° Southeast 131 151 600 -840 Descending Potomac TRACON